sensor_id;sensor_type;location;lat;lon;timestamp;P1;durP1;ratioP1;P2;durP2;ratioP2
27722;SDS011;15123;-37.794;175.246;2023-02-18T00:00:17;5.65;;;0.98;;
27722;SDS011;15123;-37.794;175.246;2023-02-18T00:02:50;4.82;;;1.00;;
27722;SDS011;15123;-37.794;175.246;2023-02-18T00:05:21;4.05;;;0.80;;
27722;SDS011;15123;-37.794;175.246;2023-02-18T00:07:52;4.07;;;0.80;;
27722;SDS011;15123;-37.794;175.246;2023-02-18T00:12:54;4.82;;;0.90;;
27722;SDS011;15123;-37.794;175.246;2023-02-18T00:15:26;5.00;;;0.95;;
27722;SDS011;15123;-37.794;175.246;2023-02-18T00:17:57;8.05;;;1.15;;
27722;SDS011;15123;-37.794;175.246;2023-02-18T00:20:28;7.97;;;0.90;;
27722;SDS011;15123;-37.794;175.246;2023-02-18T00:22:59;5.00;;;0.80;;
27722;SDS011;15123;-37.794;175.246;2023-02-18T00:28:01;5.30;;;0.80;;
27722;SDS011;15123;-37.794;175.246;2023-02-18T00:30:32;5.05;;;0.90;;
27722;SDS011;15123;-37.794;175.246;2023-02-18T00:33:03;4.90;;;0.77;;
27722;SDS011;15123;-37.794;175.246;2023-02-18T00:35:34;4.70;;;0.80;;
27722;SDS011;15123;-37.794;175.246;2023-02-18T00:40:37;4.10;;;0.80;;
27722;SDS011;15123;-37.794;175.246;2023-02-18T00:43:09;4.45;;;0.80;;
27722;SDS011;15123;-37.794;175.246;2023-02-18T00:45:41;5.57;;;0.90;;
27722;SDS011;15123;-37.794;175.246;2023-02-18T00:48:12;5.68;;;0.90;;
27722;SDS011;15123;-37.794;175.246;2023-02-18T00:50:43;6.15;;;0.88;;
27722;SDS011;15123;-37.794;175.246;2023-02-18T00:53:15;4.53;;;0.80;;
27722;SDS011;15123;-37.794;175.246;2023-02-18T00:55:47;3.45;;;0.70;;
27722;SDS011;15123;-37.794;175.246;2023-02-18T00:58:18;4.82;;;1.10;;
27722;SDS011;15123;-37.794;175.246;2023-02-18T01:00:50;5.70;;;1.00;;
27722;SDS011;15123;-37.794;175.246;2023-02-18T01:03:21;5.85;;;0.90;;
27722;SDS011;15123;-37.794;175.246;2023-02-18T01:05:52;5.20;;;1.20;;
27722;SDS011;15123;-37.794;175.246;2023-02-18T01:08:25;6.13;;;1.08;;
27722;SDS011;15123;-37.794;175.246;2023-02-18T01:13:28;5.10;;;1.08;;
27722;SDS011;15123;-37.794;175.246;2023-02-18T01:16:00;4.40;;;0.90;;
27722;SDS011;15123;-37.794;175.246;2023-02-18T01:18:31;5.15;;;1.13;;
27722;SDS011;15123;-37.794;175.246;2023-02-18T01:21:04;5.28;;;0.90;;
27722;SDS011;15123;-37.794;175.246;2023-02-18T01:23:37;5.65;;;1.02;;
27722;SDS011;15123;-37.794;175.246;2023-02-18T01:26:10;4.82;;;1.00;;
27722;SDS011;15123;-37.794;175.246;2023-02-18T01:28:41;3.67;;;0.88;;
27722;SDS011;15123;-37.794;175.246;2023-02-18T01:33:44;4.47;;;0.82;;
27722;SDS011;15123;-37.794;175.246;2023-02-18T01:38:46;6.45;;;1.20;;
27722;SDS011;15123;-37.794;175.246;2023-02-18T01:41:17;6.10;;;1.05;;
27722;SDS011;15123;-37.794;175.246;2023-02-18T01:44:09;4.40;;;0.80;;
27722;SDS011;15123;-37.794;175.246;2023-02-18T01:46:45;5.25;;;0.90;;
27722;SDS011;15123;-37.794;175.246;2023-02-18T01:49:32;4.00;;;0.90;;
27722;SDS011;15123;-37.794;175.246;2023-02-18T01:52:09;5.70;;;0.98;;
27722;SDS011;15123;-37.794;175.246;2023-02-18T01:54:46;6.53;;;1.00;;
27722;SDS011;15123;-37.794;175.246;2023-02-18T01:57:30;5.18;;;1.00;;
27722;SDS011;15123;-37.794;175.246;2023-02-18T02:00:08;4.88;;;0.88;;
27722;SDS011;15123;-37.794;175.246;2023-02-18T02:02:45;6.45;;;1.38;;
27722;SDS011;15123;-37.794;175.246;2023-02-18T02:05:19;5.93;;;1.00;;
27722;SDS011;15123;-37.794;175.246;2023-02-18T02:07:51;4.47;;;0.80;;
27722;SDS011;15123;-37.794;175.246;2023-02-18T02:10:22;4.88;;;0.95;;
27722;SDS011;15123;-37.794;175.246;2023-02-18T02:13:43;3.70;;;1.00;;
27722;SDS011;15123;-37.794;175.246;2023-02-18T02:16:36;4.15;;;1.55;;
27722;SDS011;15123;-37.794;175.246;2023-02-18T02:22:28;5.25;;;0.98;;
27722;SDS011;15123;-37.794;175.246;2023-02-18T02:25:12;5.53;;;1.00;;
27722;SDS011;15123;-37.794;175.246;2023-02-18T02:30:41;4.47;;;0.80;;
27722;SDS011;15123;-37.794;175.246;2023-02-18T02:33:19;8.23;;;1.55;;
27722;SDS011;15123;-37.794;175.246;2023-02-18T02:36:04;4.68;;;0.80;;
27722;SDS011;15123;-37.794;175.246;2023-02-18T02:41:42;3.97;;;0.90;;
27722;SDS011;15123;-37.794;175.246;2023-02-18T02:47:27;3.35;;;0.80;;
27722;SDS011;15123;-37.794;175.246;2023-02-18T02:50:26;5.25;;;0.90;;
27722;SDS011;15123;-37.794;175.246;2023-02-18T02:53:03;5.38;;;0.90;;
27722;SDS011;15123;-37.794;175.246;2023-02-18T02:55:39;3.72;;;0.80;;
27722;SDS011;15123;-37.794;175.246;2023-02-18T02:58:14;6.07;;;0.90;;
27722;SDS011;15123;-37.794;175.246;2023-02-18T03:04:18;4.53;;;0.90;;
27722;SDS011;15123;-37.794;175.246;2023-02-18T03:07:47;5.15;;;0.90;;
27722;SDS011;15123;-37.794;175.246;2023-02-18T03:15:49;4.63;;;0.90;;
27722;SDS011;15123;-37.794;175.246;2023-02-18T03:24:31;3.97;;;0.80;;
27722;SDS011;15123;-37.794;175.246;2023-02-18T03:27:51;4.65;;;0.90;;
27722;SDS011;15123;-37.794;175.246;2023-02-18T03:30:05;4.00;;;0.73;;
27722;SDS011;15123;-37.794;175.246;2023-02-18T03:32:41;4.10;;;0.68;;
27722;SDS011;15123;-37.794;175.246;2023-02-18T03:35:14;4.10;;;0.75;;
27722;SDS011;15123;-37.794;175.246;2023-02-18T03:38:00;3.70;;;0.60;;
27722;SDS011;15123;-37.794;175.246;2023-02-18T03:40:37;3.28;;;0.70;;
27722;SDS011;15123;-37.794;175.246;2023-02-18T03:45:39;5.60;;;0.85;;
27722;SDS011;15123;-37.794;175.246;2023-02-18T03:48:11;4.53;;;0.80;;
27722;SDS011;15123;-37.794;175.246;2023-02-18T03:50:43;6.00;;;1.13;;
27722;SDS011;15123;-37.794;175.246;2023-02-18T03:53:15;7.78;;;1.67;;
27722;SDS011;15123;-37.794;175.246;2023-02-18T03:55:46;3.88;;;0.80;;
27722;SDS011;15123;-37.794;175.246;2023-02-18T03:58:18;5.55;;;0.95;;
27722;SDS011;15123;-37.794;175.246;2023-02-18T04:00:49;5.57;;;0.90;;
27722;SDS011;15123;-37.794;175.246;2023-02-18T04:03:21;4.53;;;0.77;;
27722;SDS011;15123;-37.794;175.246;2023-02-18T04:08:23;4.32;;;0.90;;
27722;SDS011;15123;-37.794;175.246;2023-02-18T04:10:55;4.35;;;0.80;;
27722;SDS011;15123;-37.794;175.246;2023-02-18T04:15:57;4.72;;;0.80;;
27722;SDS011;15123;-37.794;175.246;2023-02-18T04:20:59;5.72;;;0.82;;
27722;SDS011;15123;-37.794;175.246;2023-02-18T04:23:30;4.07;;;0.80;;
27722;SDS011;15123;-37.794;175.246;2023-02-18T04:26:01;4.80;;;0.70;;
27722;SDS011;15123;-37.794;175.246;2023-02-18T04:28:32;5.00;;;0.77;;
27722;SDS011;15123;-37.794;175.246;2023-02-18T04:31:03;5.03;;;0.70;;
27722;SDS011;15123;-37.794;175.246;2023-02-18T04:33:34;3.92;;;0.90;;
27722;SDS011;15123;-37.794;175.246;2023-02-18T04:36:06;4.68;;;0.80;;
27722;SDS011;15123;-37.794;175.246;2023-02-18T04:38:38;4.65;;;0.98;;
27722;SDS011;15123;-37.794;175.246;2023-02-18T04:41:10;4.93;;;0.90;;
27722;SDS011;15123;-37.794;175.246;2023-02-18T04:43:41;3.55;;;0.73;;
27722;SDS011;15123;-37.794;175.246;2023-02-18T04:51:14;6.93;;;1.27;;
27722;SDS011;15123;-37.794;175.246;2023-02-18T04:53:45;7.85;;;1.48;;
27722;SDS011;15123;-37.794;175.246;2023-02-18T04:56:16;7.25;;;1.40;;
27722;SDS011;15123;-37.794;175.246;2023-02-18T04:58:48;7.20;;;1.30;;
27722;SDS011;15123;-37.794;175.246;2023-02-18T05:01:20;8.38;;;1.40;;
27722;SDS011;15123;-37.794;175.246;2023-02-18T05:03:51;7.82;;;1.40;;
27722;SDS011;15123;-37.794;175.246;2023-02-18T05:06:22;6.25;;;1.10;;
27722;SDS011;15123;-37.794;175.246;2023-02-18T05:08:54;8.50;;;1.27;;
27722;SDS011;15123;-37.794;175.246;2023-02-18T05:11:25;7.97;;;1.20;;
27722;SDS011;15123;-37.794;175.246;2023-02-18T05:13:56;5.72;;;1.13;;
27722;SDS011;15123;-37.794;175.246;2023-02-18T05:16:27;6.88;;;1.55;;
27722;SDS011;15123;-37.794;175.246;2023-02-18T05:21:29;7.05;;;1.38;;
27722;SDS011;15123;-37.794;175.246;2023-02-18T05:24:00;7.82;;;1.25;;
27722;SDS011;15123;-37.794;175.246;2023-02-18T05:26:31;7.70;;;1.30;;
27722;SDS011;15123;-37.794;175.246;2023-02-18T05:29:02;8.15;;;1.55;;
27722;SDS011;15123;-37.794;175.246;2023-02-18T05:34:04;9.30;;;1.47;;
27722;SDS011;15123;-37.794;175.246;2023-02-18T05:36:36;9.70;;;1.60;;
27722;SDS011;15123;-37.794;175.246;2023-02-18T05:41:37;7.45;;;1.55;;
27722;SDS011;15123;-37.794;175.246;2023-02-18T05:44:09;9.40;;;1.48;;
27722;SDS011;15123;-37.794;175.246;2023-02-18T05:47:02;6.22;;;1.30;;
27722;SDS011;15123;-37.794;175.246;2023-02-18T05:52:10;10.00;;;2.30;;
27722;SDS011;15123;-37.794;175.246;2023-02-18T05:54:42;7.93;;;2.25;;
27722;SDS011;15123;-37.794;175.246;2023-02-18T05:57:14;6.80;;;1.40;;
27722;SDS011;15123;-37.794;175.246;2023-02-18T05:59:45;9.80;;;1.50;;
27722;SDS011;15123;-37.794;175.246;2023-02-18T06:02:16;8.32;;;1.60;;
27722;SDS011;15123;-37.794;175.246;2023-02-18T06:04:48;7.65;;;1.40;;
27722;SDS011;15123;-37.794;175.246;2023-02-18T06:07:19;8.07;;;1.42;;
27722;SDS011;15123;-37.794;175.246;2023-02-18T06:09:50;10.90;;;1.40;;
27722;SDS011;15123;-37.794;175.246;2023-02-18T06:14:52;9.85;;;1.70;;
27722;SDS011;15123;-37.794;175.246;2023-02-18T06:17:24;9.05;;;1.60;;
27722;SDS011;15123;-37.794;175.246;2023-02-18T06:19:55;9.20;;;1.63;;
27722;SDS011;15123;-37.794;175.246;2023-02-18T06:22:26;6.78;;;1.20;;
27722;SDS011;15123;-37.794;175.246;2023-02-18T06:24:57;9.82;;;1.40;;
27722;SDS011;15123;-37.794;175.246;2023-02-18T06:27:29;11.05;;;1.40;;
27722;SDS011;15123;-37.794;175.246;2023-02-18T06:30:00;10.30;;;1.50;;
27722;SDS011;15123;-37.794;175.246;2023-02-18T06:32:32;9.57;;;1.45;;
27722;SDS011;15123;-37.794;175.246;2023-02-18T06:35:03;13.27;;;1.60;;
27722;SDS011;15123;-37.794;175.246;2023-02-18T06:37:35;8.43;;;1.20;;
27722;SDS011;15123;-37.794;175.246;2023-02-18T06:40:06;9.02;;;1.90;;
27722;SDS011;15123;-37.794;175.246;2023-02-18T06:42:38;8.63;;;1.50;;
27722;SDS011;15123;-37.794;175.246;2023-02-18T06:45:10;7.75;;;1.33;;
27722;SDS011;15123;-37.794;175.246;2023-02-18T06:50:13;8.80;;;1.80;;
27722;SDS011;15123;-37.794;175.246;2023-02-18T06:52:44;8.52;;;1.55;;
27722;SDS011;15123;-37.794;175.246;2023-02-18T06:55:15;9.65;;;1.70;;
27722;SDS011;15123;-37.794;175.246;2023-02-18T06:57:47;6.63;;;1.55;;
27722;SDS011;15123;-37.794;175.246;2023-02-18T07:00:18;11.07;;;1.92;;
27722;SDS011;15123;-37.794;175.246;2023-02-18T07:02:50;8.68;;;1.52;;
27722;SDS011;15123;-37.794;175.246;2023-02-18T07:05:21;11.27;;;1.50;;
27722;SDS011;15123;-37.794;175.246;2023-02-18T07:07:52;6.50;;;1.40;;
27722;SDS011;15123;-37.794;175.246;2023-02-18T07:10:23;8.85;;;2.33;;
27722;SDS011;15123;-37.794;175.246;2023-02-18T07:15:25;8.43;;;1.50;;
27722;SDS011;15123;-37.794;175.246;2023-02-18T07:17:56;8.98;;;1.48;;
27722;SDS011;15123;-37.794;175.246;2023-02-18T07:20:27;7.30;;;1.60;;
27722;SDS011;15123;-37.794;175.246;2023-02-18T07:22:59;7.80;;;1.67;;
27722;SDS011;15123;-37.794;175.246;2023-02-18T07:25:30;6.80;;;1.67;;
27722;SDS011;15123;-37.794;175.246;2023-02-18T07:28:01;6.60;;;1.40;;
27722;SDS011;15123;-37.794;175.246;2023-02-18T07:30:32;6.68;;;1.40;;
27722;SDS011;15123;-37.794;175.246;2023-02-18T07:33:04;5.18;;;1.30;;
27722;SDS011;15123;-37.794;175.246;2023-02-18T07:35:36;5.53;;;1.27;;
27722;SDS011;15123;-37.794;175.246;2023-02-18T07:38:07;6.28;;;1.35;;
27722;SDS011;15123;-37.794;175.246;2023-02-18T07:40:38;6.43;;;1.27;;
27722;SDS011;15123;-37.794;175.246;2023-02-18T07:43:09;6.72;;;1.40;;
27722;SDS011;15123;-37.794;175.246;2023-02-18T07:45:40;6.47;;;1.13;;
27722;SDS011;15123;-37.794;175.246;2023-02-18T07:48:11;5.15;;;1.10;;
27722;SDS011;15123;-37.794;175.246;2023-02-18T07:50:44;5.18;;;1.13;;
27722;SDS011;15123;-37.794;175.246;2023-02-18T07:53:15;3.80;;;1.10;;
27722;SDS011;15123;-37.794;175.246;2023-02-18T07:58:21;5.13;;;1.20;;
27722;SDS011;15123;-37.794;175.246;2023-02-18T08:00:55;8.68;;;1.40;;
27722;SDS011;15123;-37.794;175.246;2023-02-18T08:03:28;7.88;;;1.60;;
27722;SDS011;15123;-37.794;175.246;2023-02-18T08:06:00;7.40;;;1.60;;
27722;SDS011;15123;-37.794;175.246;2023-02-18T08:08:32;8.00;;;1.50;;
27722;SDS011;15123;-37.794;175.246;2023-02-18T08:11:04;6.22;;;1.63;;
27722;SDS011;15123;-37.794;175.246;2023-02-18T08:13:47;6.60;;;2.58;;
27722;SDS011;15123;-37.794;175.246;2023-02-18T08:16:19;9.45;;;3.42;;
27722;SDS011;15123;-37.794;175.246;2023-02-18T08:18:51;6.90;;;2.42;;
27722;SDS011;15123;-37.794;175.246;2023-02-18T08:21:24;7.75;;;2.80;;
27722;SDS011;15123;-37.794;175.246;2023-02-18T08:26:26;8.75;;;2.38;;
27722;SDS011;15123;-37.794;175.246;2023-02-18T08:28:57;8.27;;;2.30;;
27722;SDS011;15123;-37.794;175.246;2023-02-18T08:31:29;9.80;;;2.20;;
27722;SDS011;15123;-37.794;175.246;2023-02-18T08:34:01;6.75;;;1.92;;
27722;SDS011;15123;-37.794;175.246;2023-02-18T08:36:33;6.72;;;2.00;;
27722;SDS011;15123;-37.794;175.246;2023-02-18T08:39:05;6.13;;;1.70;;
27722;SDS011;15123;-37.794;175.246;2023-02-18T08:41:37;7.43;;;1.67;;
27722;SDS011;15123;-37.794;175.246;2023-02-18T08:44:08;7.90;;;1.40;;
27722;SDS011;15123;-37.794;175.246;2023-02-18T08:49:10;5.85;;;1.33;;
27722;SDS011;15123;-37.794;175.246;2023-02-18T08:54:12;6.28;;;1.25;;
27722;SDS011;15123;-37.794;175.246;2023-02-18T08:56:43;5.20;;;1.50;;
27722;SDS011;15123;-37.794;175.246;2023-02-18T08:59:15;5.55;;;1.40;;
27722;SDS011;15123;-37.794;175.246;2023-02-18T09:01:46;5.93;;;1.50;;
27722;SDS011;15123;-37.794;175.246;2023-02-18T09:04:17;6.60;;;1.52;;
27722;SDS011;15123;-37.794;175.246;2023-02-18T09:06:49;6.35;;;1.70;;
27722;SDS011;15123;-37.794;175.246;2023-02-18T09:09:21;7.18;;;2.05;;
27722;SDS011;15123;-37.794;175.246;2023-02-18T09:11:52;9.52;;;1.90;;
27722;SDS011;15123;-37.794;175.246;2023-02-18T09:14:23;6.97;;;1.60;;
27722;SDS011;15123;-37.794;175.246;2023-02-18T09:16:56;7.00;;;1.52;;
27722;SDS011;15123;-37.794;175.246;2023-02-18T09:19:27;5.43;;;1.60;;
27722;SDS011;15123;-37.794;175.246;2023-02-18T09:21:59;5.82;;;1.55;;
27722;SDS011;15123;-37.794;175.246;2023-02-18T09:24:35;6.13;;;1.58;;
27722;SDS011;15123;-37.794;175.246;2023-02-18T09:27:07;7.22;;;1.63;;
27722;SDS011;15123;-37.794;175.246;2023-02-18T09:29:39;5.35;;;1.70;;
27722;SDS011;15123;-37.794;175.246;2023-02-18T09:32:11;5.88;;;1.58;;
27722;SDS011;15123;-37.794;175.246;2023-02-18T09:34:56;6.00;;;1.60;;
27722;SDS011;15123;-37.794;175.246;2023-02-18T09:37:29;6.30;;;1.50;;
27722;SDS011;15123;-37.794;175.246;2023-02-18T09:40:00;6.20;;;1.70;;
27722;SDS011;15123;-37.794;175.246;2023-02-18T09:45:05;6.68;;;1.63;;
27722;SDS011;15123;-37.794;175.246;2023-02-18T09:47:38;7.03;;;2.00;;
27722;SDS011;15123;-37.794;175.246;2023-02-18T09:50:13;5.22;;;1.90;;
27722;SDS011;15123;-37.794;175.246;2023-02-18T09:52:52;6.10;;;1.50;;
27722;SDS011;15123;-37.794;175.246;2023-02-18T09:57:58;6.07;;;1.60;;
27722;SDS011;15123;-37.794;175.246;2023-02-18T10:00:35;8.38;;;1.88;;
27722;SDS011;15123;-37.794;175.246;2023-02-18T10:03:16;5.32;;;1.45;;
27722;SDS011;15123;-37.794;175.246;2023-02-18T10:09:03;7.18;;;1.85;;
27722;SDS011;15123;-37.794;175.246;2023-02-18T10:11:41;5.72;;;1.63;;
27722;SDS011;15123;-37.794;175.246;2023-02-18T10:14:13;6.65;;;1.60;;
27722;SDS011;15123;-37.794;175.246;2023-02-18T10:16:45;7.65;;;1.70;;
27722;SDS011;15123;-37.794;175.246;2023-02-18T10:21:49;6.72;;;1.90;;
27722;SDS011;15123;-37.794;175.246;2023-02-18T10:24:29;5.80;;;1.73;;
27722;SDS011;15123;-37.794;175.246;2023-02-18T10:27:04;7.35;;;1.55;;
27722;SDS011;15123;-37.794;175.246;2023-02-18T10:29:37;7.53;;;2.00;;
27722;SDS011;15123;-37.794;175.246;2023-02-18T10:40:29;6.90;;;1.63;;
27722;SDS011;15123;-37.794;175.246;2023-02-18T10:51:52;6.25;;;1.63;;
27722;SDS011;15123;-37.794;175.246;2023-02-18T10:54:26;8.50;;;1.88;;
27722;SDS011;15123;-37.794;175.246;2023-02-18T10:57:21;7.35;;;1.83;;
27722;SDS011;15123;-37.794;175.246;2023-02-18T10:59:54;8.48;;;2.00;;
27722;SDS011;15123;-37.794;175.246;2023-02-18T11:02:41;6.57;;;1.75;;
27722;SDS011;15123;-37.794;175.246;2023-02-18T11:05:21;8.63;;;1.98;;
27722;SDS011;15123;-37.794;175.246;2023-02-18T11:07:55;7.40;;;1.90;;
27722;SDS011;15123;-37.794;175.246;2023-02-18T11:10:31;6.25;;;1.80;;
27722;SDS011;15123;-37.794;175.246;2023-02-18T11:13:05;7.10;;;2.10;;
27722;SDS011;15123;-37.794;175.246;2023-02-18T11:15:37;8.32;;;2.13;;
27722;SDS011;15123;-37.794;175.246;2023-02-18T11:18:41;6.10;;;1.80;;
27722;SDS011;15123;-37.794;175.246;2023-02-18T11:24:09;7.85;;;1.80;;
27722;SDS011;15123;-37.794;175.246;2023-02-18T11:26:45;7.97;;;1.90;;
27722;SDS011;15123;-37.794;175.246;2023-02-18T11:29:20;7.85;;;1.80;;
27722;SDS011;15123;-37.794;175.246;2023-02-18T11:31:54;5.63;;;1.95;;
27722;SDS011;15123;-37.794;175.246;2023-02-18T11:34:26;6.50;;;1.70;;
27722;SDS011;15123;-37.794;175.246;2023-02-18T11:37:09;8.07;;;1.90;;
27722;SDS011;15123;-37.794;175.246;2023-02-18T11:39:46;8.93;;;2.03;;
27722;SDS011;15123;-37.794;175.246;2023-02-18T11:42:20;6.72;;;1.80;;
27722;SDS011;15123;-37.794;175.246;2023-02-18T11:44:57;6.78;;;1.60;;
27722;SDS011;15123;-37.794;175.246;2023-02-18T11:47:33;7.40;;;2.25;;
27722;SDS011;15123;-37.794;175.246;2023-02-18T11:52:40;8.25;;;1.70;;
27722;SDS011;15123;-37.794;175.246;2023-02-18T11:55:21;7.88;;;1.88;;
27722;SDS011;15123;-37.794;175.246;2023-02-18T12:00:41;9.55;;;1.75;;
27722;SDS011;15123;-37.794;175.246;2023-02-18T12:03:17;8.82;;;2.00;;
27722;SDS011;15123;-37.794;175.246;2023-02-18T12:06:22;6.38;;;1.98;;
27722;SDS011;15123;-37.794;175.246;2023-02-18T12:11:38;9.63;;;2.05;;
27722;SDS011;15123;-37.794;175.246;2023-02-18T12:14:13;5.82;;;2.10;;
27722;SDS011;15123;-37.794;175.246;2023-02-18T12:26:37;8.43;;;2.50;;
27722;SDS011;15123;-37.794;175.246;2023-02-18T12:37:12;7.95;;;2.00;;
27722;SDS011;15123;-37.794;175.246;2023-02-18T12:40:09;6.53;;;1.95;;
27722;SDS011;15123;-37.794;175.246;2023-02-18T12:46:00;6.93;;;2.15;;
27722;SDS011;15123;-37.794;175.246;2023-02-18T12:48:52;8.38;;;2.10;;
27722;SDS011;15123;-37.794;175.246;2023-02-18T12:52:24;6.05;;;2.22;;
27722;SDS011;15123;-37.794;175.246;2023-02-18T13:13:59;8.77;;;3.13;;
27722;SDS011;15123;-37.794;175.246;2023-02-18T13:17:01;9.15;;;3.50;;
27722;SDS011;15123;-37.794;175.246;2023-02-18T13:19:44;9.52;;;3.20;;
27722;SDS011;15123;-37.794;175.246;2023-02-18T13:22:19;7.75;;;3.00;;
27722;SDS011;15123;-37.794;175.246;2023-02-18T13:24:53;9.20;;;3.20;;
27722;SDS011;15123;-37.794;175.246;2023-02-18T13:30:19;6.30;;;2.38;;
27722;SDS011;15123;-37.794;175.246;2023-02-18T13:35:34;8.18;;;2.80;;
27722;SDS011;15123;-37.794;175.246;2023-02-18T13:40:56;7.53;;;2.35;;
27722;SDS011;15123;-37.794;175.246;2023-02-18T13:43:32;6.30;;;2.30;;
27722;SDS011;15123;-37.794;175.246;2023-02-18T13:48:52;8.18;;;2.42;;
27722;SDS011;15123;-37.794;175.246;2023-02-18T13:51:29;6.97;;;2.30;;
27722;SDS011;15123;-37.794;175.246;2023-02-18T13:56:46;7.55;;;2.47;;
27722;SDS011;15123;-37.794;175.246;2023-02-18T14:01:54;7.35;;;2.40;;
27722;SDS011;15123;-37.794;175.246;2023-02-18T14:09:57;7.60;;;2.58;;
27722;SDS011;15123;-37.794;175.246;2023-02-18T14:20:44;6.88;;;2.65;;
27722;SDS011;15123;-37.794;175.246;2023-02-18T14:26:07;9.55;;;3.53;;
27722;SDS011;15123;-37.794;175.246;2023-02-18T14:28:52;6.30;;;3.10;;
27722;SDS011;15123;-37.794;175.246;2023-02-18T14:31:27;9.15;;;3.20;;
27722;SDS011;15123;-37.794;175.246;2023-02-18T14:34:07;8.10;;;3.13;;
27722;SDS011;15123;-37.794;175.246;2023-02-18T14:40:03;10.68;;;3.78;;
27722;SDS011;15123;-37.794;175.246;2023-02-18T14:46:18;10.10;;;3.70;;
27722;SDS011;15123;-37.794;175.246;2023-02-18T14:51:48;7.80;;;3.20;;
27722;SDS011;15123;-37.794;175.246;2023-02-18T14:54:20;7.38;;;2.90;;
27722;SDS011;15123;-37.794;175.246;2023-02-18T14:59:36;8.80;;;2.95;;
27722;SDS011;15123;-37.794;175.246;2023-02-18T15:02:17;7.80;;;2.83;;
27722;SDS011;15123;-37.794;175.246;2023-02-18T15:04:53;7.47;;;2.60;;
27722;SDS011;15123;-37.794;175.246;2023-02-18T15:07:28;10.98;;;2.83;;
27722;SDS011;15123;-37.794;175.246;2023-02-18T15:09:59;8.82;;;2.42;;
27722;SDS011;15123;-37.794;175.246;2023-02-18T15:12:31;8.13;;;2.40;;
27722;SDS011;15123;-37.794;175.246;2023-02-18T15:15:02;9.32;;;2.38;;
27722;SDS011;15123;-37.794;175.246;2023-02-18T15:17:36;6.05;;;2.50;;
27722;SDS011;15123;-37.794;175.246;2023-02-18T15:20:07;8.65;;;2.70;;
27722;SDS011;15123;-37.794;175.246;2023-02-18T15:22:41;6.72;;;2.45;;
27722;SDS011;15123;-37.794;175.246;2023-02-18T15:25:12;10.20;;;2.60;;
27722;SDS011;15123;-37.794;175.246;2023-02-18T15:27:43;6.57;;;2.17;;
27722;SDS011;15123;-37.794;175.246;2023-02-18T15:30:17;9.73;;;2.65;;
27722;SDS011;15123;-37.794;175.246;2023-02-18T15:32:53;8.77;;;2.50;;
27722;SDS011;15123;-37.794;175.246;2023-02-18T15:35:27;8.55;;;2.70;;
27722;SDS011;15123;-37.794;175.246;2023-02-18T15:38:03;8.75;;;2.53;;
27722;SDS011;15123;-37.794;175.246;2023-02-18T15:40:35;8.57;;;2.40;;
27722;SDS011;15123;-37.794;175.246;2023-02-18T15:43:11;7.55;;;2.40;;
27722;SDS011;15123;-37.794;175.246;2023-02-18T15:45:55;6.55;;;2.50;;
27722;SDS011;15123;-37.794;175.246;2023-02-18T15:48:31;8.48;;;2.72;;
27722;SDS011;15123;-37.794;175.246;2023-02-18T15:51:14;8.65;;;2.60;;
27722;SDS011;15123;-37.794;175.246;2023-02-18T15:53:51;6.82;;;2.28;;
27722;SDS011;15123;-37.794;175.246;2023-02-18T16:01:52;6.50;;;2.47;;
27722;SDS011;15123;-37.794;175.246;2023-02-18T16:04:27;8.13;;;2.30;;
27722;SDS011;15123;-37.794;175.246;2023-02-18T16:07:02;8.13;;;2.08;;
27722;SDS011;15123;-37.794;175.246;2023-02-18T16:09:46;8.15;;;2.30;;
27722;SDS011;15123;-37.794;175.246;2023-02-18T16:12:21;6.50;;;2.17;;
27722;SDS011;15123;-37.794;175.246;2023-02-18T16:14:58;9.40;;;2.88;;
27722;SDS011;15123;-37.794;175.246;2023-02-18T16:17:30;10.00;;;3.20;;
27722;SDS011;15123;-37.794;175.246;2023-02-18T16:20:13;7.80;;;2.95;;
27722;SDS011;15123;-37.794;175.246;2023-02-18T16:22:51;9.52;;;2.92;;
27722;SDS011;15123;-37.794;175.246;2023-02-18T16:25:25;9.98;;;2.90;;
27722;SDS011;15123;-37.794;175.246;2023-02-18T16:28:09;9.52;;;2.72;;
27722;SDS011;15123;-37.794;175.246;2023-02-18T16:30:44;7.97;;;2.47;;
27722;SDS011;15123;-37.794;175.246;2023-02-18T16:33:15;6.90;;;2.40;;
27722;SDS011;15123;-37.794;175.246;2023-02-18T16:35:46;7.20;;;2.70;;
27722;SDS011;15123;-37.794;175.246;2023-02-18T16:38:19;8.32;;;2.70;;
27722;SDS011;15123;-37.794;175.246;2023-02-18T16:40:52;7.63;;;2.30;;
27722;SDS011;15123;-37.794;175.246;2023-02-18T16:43:25;9.90;;;2.80;;
27722;SDS011;15123;-37.794;175.246;2023-02-18T16:46:34;7.60;;;2.75;;
27722;SDS011;15123;-37.794;175.246;2023-02-18T16:49:00;10.45;;;3.10;;
27722;SDS011;15123;-37.794;175.246;2023-02-18T16:51:31;8.15;;;2.63;;
27722;SDS011;15123;-37.794;175.246;2023-02-18T16:54:03;9.00;;;2.35;;
27722;SDS011;15123;-37.794;175.246;2023-02-18T16:56:35;8.68;;;2.30;;
27722;SDS011;15123;-37.794;175.246;2023-02-18T16:59:06;7.88;;;2.40;;
27722;SDS011;15123;-37.794;175.246;2023-02-18T17:01:39;8.13;;;2.78;;
27722;SDS011;15123;-37.794;175.246;2023-02-18T17:04:14;8.27;;;2.30;;
27722;SDS011;15123;-37.794;175.246;2023-02-18T17:06:46;7.35;;;2.70;;
27722;SDS011;15123;-37.794;175.246;2023-02-18T17:09:19;6.97;;;2.67;;
27722;SDS011;15123;-37.794;175.246;2023-02-18T17:11:53;7.05;;;2.35;;
27722;SDS011;15123;-37.794;175.246;2023-02-18T17:14:24;6.72;;;2.25;;
27722;SDS011;15123;-37.794;175.246;2023-02-18T17:16:55;10.20;;;2.58;;
27722;SDS011;15123;-37.794;175.246;2023-02-18T17:19:27;9.95;;;2.90;;
27722;SDS011;15123;-37.794;175.246;2023-02-18T17:21:58;9.85;;;2.70;;
27722;SDS011;15123;-37.794;175.246;2023-02-18T17:24:29;9.10;;;2.80;;
27722;SDS011;15123;-37.794;175.246;2023-02-18T17:27:00;7.85;;;2.65;;
27722;SDS011;15123;-37.794;175.246;2023-02-18T17:29:31;7.03;;;2.45;;
27722;SDS011;15123;-37.794;175.246;2023-02-18T17:32:04;10.77;;;3.22;;
27722;SDS011;15123;-37.794;175.246;2023-02-18T17:34:36;6.35;;;2.72;;
27722;SDS011;15123;-37.794;175.246;2023-02-18T17:37:11;8.90;;;2.45;;
27722;SDS011;15123;-37.794;175.246;2023-02-18T17:39:42;7.60;;;2.47;;
27722;SDS011;15123;-37.794;175.246;2023-02-18T17:42:13;8.35;;;2.70;;
27722;SDS011;15123;-37.794;175.246;2023-02-18T17:44:45;7.78;;;2.80;;
27722;SDS011;15123;-37.794;175.246;2023-02-18T17:47:16;7.93;;;2.40;;
27722;SDS011;15123;-37.794;175.246;2023-02-18T17:49:47;10.43;;;2.65;;
27722;SDS011;15123;-37.794;175.246;2023-02-18T17:52:26;8.70;;;2.88;;
27722;SDS011;15123;-37.794;175.246;2023-02-18T17:54:59;7.85;;;2.60;;
27722;SDS011;15123;-37.794;175.246;2023-02-18T17:57:30;8.77;;;2.78;;
27722;SDS011;15123;-37.794;175.246;2023-02-18T18:00:01;9.07;;;2.58;;
27722;SDS011;15123;-37.794;175.246;2023-02-18T18:02:34;9.13;;;2.97;;
27722;SDS011;15123;-37.794;175.246;2023-02-18T18:05:09;10.45;;;2.38;;
27722;SDS011;15123;-37.794;175.246;2023-02-18T18:07:47;9.02;;;2.60;;
27722;SDS011;15123;-37.794;175.246;2023-02-18T18:10:21;8.50;;;2.33;;
27722;SDS011;15123;-37.794;175.246;2023-02-18T18:12:57;8.95;;;2.45;;
27722;SDS011;15123;-37.794;175.246;2023-02-18T18:15:31;7.45;;;2.78;;
27722;SDS011;15123;-37.794;175.246;2023-02-18T18:18:05;6.53;;;2.30;;
27722;SDS011;15123;-37.794;175.246;2023-02-18T18:20:37;7.68;;;2.50;;
27722;SDS011;15123;-37.794;175.246;2023-02-18T18:23:10;9.63;;;3.05;;
27722;SDS011;15123;-37.794;175.246;2023-02-18T18:25:47;8.40;;;2.38;;